createdAt,value
2017-09-25T00:01:43.312Z,97.08
2017-09-25T00:02:43.292Z,97.17
2017-09-25T00:04:45.409Z,96.26
2017-09-25T00:05:36.737Z,96.98
2017-09-25T00:07:30.067Z,97.08
2017-09-25T00:08:30.118Z,96.98
2017-09-25T00:10:32.182Z,97.27
2017-09-25T00:11:24.529Z,97.41
2017-09-25T00:13:18.085Z,97.55
2017-09-25T00:14:17.961Z,97.55
2017-09-25T00:16:12.391Z,97.36
2017-09-25T00:17:12.346Z,97.31
2017-09-25T00:19:05.750Z,97.93
2017-09-25T00:20:05.764Z,97.98
2017-09-25T00:21:59.199Z,97.65
2017-09-25T00:22:59.256Z,97.88
2017-09-25T00:24:53.579Z,97.36
2017-09-25T00:25:53.606Z,97.46
2017-09-25T00:27:47.944Z,96.74
2017-09-25T00:28:48.041Z,97.17
2017-09-25T00:30:42.539Z,97.93
2017-09-25T00:31:42.505Z,97.93
2017-09-25T00:33:37.830Z,96.98
2017-09-25T00:34:37.851Z,96.89
2017-09-25T00:36:31.285Z,97.93
2017-09-25T00:37:31.244Z,97.36
2017-09-25T00:39:24.803Z,96.98
2017-09-25T00:40:24.643Z,96.31
2017-09-25T00:42:20.026Z,96.22
2017-09-25T00:43:20.067Z,96.22
2017-09-25T00:45:13.505Z,95.56
2017-09-25T00:46:13.525Z,95.75
2017-09-25T00:48:08.883Z,96.55
2017-09-25T00:49:08.907Z,96.41
2017-09-25T00:51:03.312Z,96.03
2017-09-25T00:52:03.339Z,96.17
2017-09-25T00:53:57.708Z,96.26
2017-09-25T00:54:57.757Z,96.26
2017-09-25T00:56:52.078Z,96.84
2017-09-25T00:57:52.095Z,96.74
2017-09-25T00:59:54.129Z,96.36
2017-09-25T01:00:46.545Z,96.46
2017-09-25T01:02:48.500Z,97.22
2017-09-25T01:03:39.860Z,96.74
2017-09-25T01:05:33.402Z,96.36
2017-09-25T01:06:33.396Z,95.89
2017-09-25T01:08:26.803Z,96.36
2017-09-25T01:09:26.838Z,97.13
2017-09-25T01:11:28.910Z,97.13
2017-09-25T01:12:20.167Z,96.36
2017-09-25T01:14:13.605Z,96.17
2017-09-25T01:15:13.577Z,96.26
2017-09-25T01:17:14.612Z,96.26
2017-09-25T01:18:06.924Z,95.60
2017-09-25T01:20:01.390Z,95.56
2017-09-25T01:21:01.350Z,95.84
2017-09-25T01:22:54.775Z,95.65
2017-09-25T01:23:54.845Z,95.94
2017-09-25T01:25:57.807Z,97.17
2017-09-25T01:26:49.175Z,96.84
2017-09-25T01:28:50.189Z,97.50
2017-09-25T01:29:42.585Z,97.13
2017-09-25T01:31:37.112Z,95.98
2017-09-25T01:32:37.008Z,96.17
2017-09-25T01:34:38.143Z,96.36
2017-09-25T01:35:30.487Z,96.36
2017-09-25T01:37:24.856Z,96.08
2017-09-25T01:38:24.834Z,96.31
2017-09-25T01:40:18.243Z,95.84
2017-09-25T01:41:18.321Z,95.75
2017-09-25T01:43:11.628Z,95.75
2017-09-25T01:44:11.623Z,95.94
2017-09-25T01:46:06.067Z,96.03
2017-09-25T01:47:06.024Z,96.03
2017-09-25T01:48:59.477Z,96.50
2017-09-25T01:49:59.479Z,96.12
2017-09-25T01:51:52.928Z,96.31
2017-09-25T01:52:52.852Z,96.41
2017-09-25T01:54:46.374Z,94.42
2017-09-25T01:55:46.285Z,94.51
2017-09-25T01:57:40.715Z,94.89
2017-09-25T01:58:40.651Z,95.27
2017-09-25T02:00:35.160Z,95.27
2017-09-25T02:01:35.068Z,95.75
2017-09-25T02:03:29.508Z,95.65
2017-09-25T02:04:29.452Z,95.89
2017-09-25T02:06:22.889Z,95.60
2017-09-25T02:07:22.878Z,95.94
2017-09-25T02:09:16.285Z,97.08
2017-09-25T02:10:16.353Z,96.89
2017-09-25T02:12:17.993Z,96.22
2017-09-25T02:13:09.320Z,96.12
2017-09-25T02:15:10.371Z,95.17
2017-09-25T02:16:02.710Z,94.22
2017-09-25T02:17:56.172Z,94.79
2017-09-25T02:18:56.077Z,95.27
2017-09-25T02:20:58.140Z,94.93
2017-09-25T02:21:50.516Z,95.51
2017-09-25T02:23:44.036Z,95.79
2017-09-25T02:24:43.921Z,96.12
2017-09-25T02:26:37.396Z,96.31
2017-09-25T02:27:37.384Z,95.89
2017-09-25T02:29:38.412Z,95.03
2017-09-25T02:30:30.732Z,95.60
2017-09-25T02:32:24.146Z,95.70
2017-09-25T02:33:24.180Z,95.70
2017-09-25T02:35:17.593Z,95.89
2017-09-25T02:36:17.565Z,95.60
2017-09-25T02:38:12.432Z,95.12
2017-09-25T02:39:12.525Z,95.32
2017-09-25T02:41:05.849Z,95.70
2017-09-25T02:42:05.806Z,95.70
2017-09-25T02:43:59.243Z,96.08
2017-09-25T02:44:59.250Z,96.26
2017-09-25T02:46:52.701Z,96.17
2017-09-25T02:47:52.665Z,96.84
2017-09-25T02:49:55.663Z,97.03
2017-09-25T02:50:47.069Z,96.36
2017-09-25T02:52:48.217Z,96.26
2017-09-25T02:53:40.497Z,96.84
2017-09-25T02:55:43.577Z,96.08
2017-09-25T02:56:35.940Z,95.98
2017-09-25T02:58:37.936Z,94.93
2017-09-25T02:59:30.293Z,95.51
2017-09-25T03:01:32.284Z,95.32
2017-09-25T03:02:23.737Z,95.70
2017-09-25T03:04:25.793Z,95.60
2017-09-25T03:05:18.105Z,96.08
2017-09-25T03:07:19.153Z,95.98
2017-09-25T03:08:11.482Z,94.37
2017-09-25T03:10:12.569Z,94.93
2017-09-25T03:11:04.893Z,94.56
2017-09-25T03:12:59.439Z,95.51
2017-09-25T03:13:59.265Z,95.51
2017-09-25T03:16:01.401Z,95.32
2017-09-25T03:16:53.670Z,95.70
2017-09-25T03:18:54.761Z,96.26
2017-09-25T03:19:47.094Z,96.08
2017-09-25T03:21:41.624Z,96.36
2017-09-25T03:22:41.531Z,95.98
2017-09-25T03:24:42.625Z,95.41
2017-09-25T03:25:34.904Z,95.70
2017-09-25T03:27:36.048Z,95.03
2017-09-25T03:28:28.354Z,94.65
2017-09-25T03:30:31.538Z,95.22
2017-09-25T03:31:22.762Z,95.03
2017-09-25T03:33:23.866Z,94.56
2017-09-25T03:34:16.172Z,95.32
2017-09-25T03:36:18.223Z,95.03
2017-09-25T03:37:09.652Z,95.41
2017-09-25T03:39:12.758Z,94.84
2017-09-25T03:40:03.978Z,94.56
2017-09-25T03:42:05.051Z,94.27
2017-09-25T03:42:57.441Z,94.74
2017-09-25T03:45:00.523Z,95.03
2017-09-25T03:45:50.869Z,95.36
2017-09-25T03:47:54.004Z,95.41
2017-09-25T03:48:45.270Z,94.74
2017-09-25T03:50:49.970Z,94.56
2017-09-25T03:51:39.685Z,94.56
2017-09-25T03:53:43.705Z,94.60
2017-09-25T03:54:34.144Z,95.27
2017-09-25T03:56:27.636Z,95.46
2017-09-25T03:57:27.568Z,95.65
2017-09-25T03:59:30.571Z,95.89
2017-09-25T04:00:21.950Z,95.51
2017-09-25T04:02:15.296Z,94.42
2017-09-25T04:03:15.397Z,94.51
2017-09-25T04:05:17.430Z,95.46
2017-09-25T04:06:08.890Z,94.79
2017-09-25T04:08:12.120Z,95.46
2017-09-25T04:09:11.048Z,95.36
2017-09-25T04:11:06.281Z,94.98
2017-09-25T04:11:57.493Z,95.27
2017-09-25T04:13:50.983Z,95.36
2017-09-25T04:14:50.932Z,94.60
2017-09-25T04:16:53.010Z,95.27
2017-09-25T04:17:53.996Z,94.70
2017-09-25T04:19:49.440Z,94.42
2017-09-25T04:20:40.777Z,94.51
2017-09-25T04:22:42.764Z,94.32
2017-09-25T04:23:34.160Z,94.42
2017-09-25T04:25:27.530Z,94.42
2017-09-25T04:26:27.494Z,95.36
2017-09-25T04:28:21.942Z,95.65
2017-09-25T04:29:29.561Z,95.55
2017-09-25T04:31:15.384Z,94.89
2017-09-25T04:32:15.606Z,95.27
2017-09-25T04:34:18.463Z,95.55
2017-09-25T04:35:09.783Z,95.55
2017-09-25T04:37:12.900Z,95.89
2017-09-25T04:38:04.226Z,95.22
2017-09-25T04:40:07.242Z,94.46
2017-09-25T04:40:58.553Z,94.51
2017-09-25T04:42:51.994Z,93.94
2017-09-25T04:43:51.968Z,94.79
2017-09-25T04:45:53.027Z,94.32
2017-09-25T04:46:45.368Z,94.60
2017-09-25T04:48:47.458Z,95.98
2017-09-25T04:49:48.496Z,95.60
2017-09-25T04:51:40.840Z,95.12
2017-09-25T04:52:33.185Z,95.32
2017-09-25T04:54:35.219Z,95.79
2017-09-25T04:55:27.570Z,95.94
2017-09-25T04:57:20.955Z,95.65
2017-09-25T04:58:21.049Z,96.22
2017-09-25T05:00:15.431Z,96.31
2017-09-25T05:01:15.429Z,96.98
2017-09-25T05:03:17.518Z,96.69
2017-09-25T05:04:09.884Z,97.12
2017-09-25T05:06:11.900Z,96.74
2017-09-25T05:07:03.252Z,96.79
2017-09-25T05:09:05.362Z,96.98
2017-09-25T05:09:56.673Z,96.93
2017-09-25T05:11:58.669Z,96.22
2017-09-25T05:12:51.136Z,96.22
2017-09-25T05:14:52.091Z,95.94
2017-09-25T05:15:53.077Z,96.12
2017-09-25T05:17:45.554Z,96.41
2017-09-25T05:18:46.521Z,96.26
2017-09-25T05:20:40.969Z,95.89
2017-09-25T05:21:40.988Z,96.36
2017-09-25T05:23:26.744Z,96.84
2017-09-25T05:24:35.477Z,97.22
2017-09-25T05:26:29.739Z,97.97
2017-09-25T05:27:29.711Z,97.60
2017-09-25T05:29:24.175Z,97.78
2017-09-25T05:30:24.164Z,97.22
2017-09-25T05:32:16.553Z,96.08
2017-09-25T05:33:17.577Z,96.17
2017-09-25T05:35:11.944Z,95.79
2017-09-25T05:36:10.929Z,96.26
2017-09-25T05:38:05.425Z,96.17
2017-09-25T05:39:06.425Z,95.79
2017-09-25T05:40:58.858Z,95.65
2017-09-25T05:41:51.128Z,95.27
2017-09-25T05:43:54.173Z,95.98
2017-09-25T05:44:54.212Z,96.26
2017-09-25T05:46:48.598Z,95.32
2017-09-25T05:47:48.620Z,95.32
2017-09-25T05:49:34.331Z,94.93
2017-09-25T05:50:43.117Z,95.22
2017-09-25T05:52:37.409Z,94.84
2017-09-25T05:53:28.743Z,95.32
2017-09-25T05:55:31.832Z,94.74
2017-09-25T05:56:31.748Z,95.51
2017-09-25T05:58:26.349Z,95.70
2017-09-25T05:59:17.625Z,96.17
2017-09-25T06:01:11.945Z,95.60
2017-09-25T06:02:20.658Z,95.32
2017-09-25T06:04:14.085Z,95.22
2017-09-25T06:05:05.348Z,95.03
2017-09-25T06:07:07.462Z,95.60
2017-09-25T06:07:58.798Z,95.22
2017-09-25T06:10:01.849Z,95.41
2017-09-25T06:11:01.773Z,95.32
2017-09-25T06:12:55.180Z,95.22
2017-09-25T06:13:54.266Z,95.70
2017-09-25T06:15:48.646Z,95.79
2017-09-25T06:16:39.970Z,95.70
2017-09-25T06:18:42.954Z,95.22
2017-09-25T06:19:34.430Z,95.41
2017-09-25T06:21:36.525Z,94.93
2017-09-25T06:22:36.421Z,94.46
2017-09-25T06:24:28.815Z,94.84
2017-09-25T06:25:21.187Z,94.37
2017-09-25T06:27:22.252Z,94.93
2017-09-25T06:28:22.226Z,95.60
2017-09-25T06:30:15.653Z,94.46
2017-09-25T06:31:16.665Z,95.32
2017-09-25T06:33:09.068Z,94.84
2017-09-25T06:34:09.022Z,94.84
2017-09-25T06:36:04.336Z,95.70
2017-09-25T06:36:55.833Z,95.03
2017-09-25T06:38:49.496Z,95.17
2017-09-25T06:39:49.139Z,95.32
2017-09-25T06:41:43.495Z,94.42
2017-09-25T06:42:43.540Z,95.46
2017-09-25T06:44:36.935Z,94.98
2017-09-25T06:45:36.945Z,95.84
2017-09-25T06:47:30.436Z,95.36
2017-09-25T06:48:30.304Z,95.46
2017-09-25T06:50:23.823Z,95.75
2017-09-25T06:51:23.751Z,95.65
2017-09-25T06:53:26.848Z,95.56
2017-09-25T06:54:18.230Z,95.89
2017-09-25T06:56:12.540Z,95.51
2017-09-25T06:57:12.569Z,95.75
2017-09-25T06:59:05.974Z,95.41
2017-09-25T07:00:06.022Z,95.70
2017-09-25T07:01:59.379Z,95.89
2017-09-25T07:02:59.346Z,96.08
2017-09-25T07:05:02.425Z,95.98
2017-09-25T07:05:53.840Z,96.26
2017-09-25T07:07:58.934Z,95.79
2017-09-25T07:08:54.777Z,96.46
2017-09-25T07:10:40.662Z,96.98
2017-09-25T07:11:40.636Z,97.17
2017-09-25T07:13:34.047Z,96.60
2017-09-25T07:14:34.004Z,95.94
2017-09-25T07:16:27.457Z,96.41
2017-09-25T07:17:27.472Z,96.03
2017-09-25T07:19:20.855Z,96.22
2017-09-25T07:20:20.875Z,96.12
2017-09-25T07:22:14.277Z,96.12
2017-09-25T07:23:14.299Z,96.41
2017-09-25T07:25:16.357Z,96.46
2017-09-25T07:26:16.201Z,96.08
2017-09-25T07:28:01.046Z,96.46
2017-09-25T07:29:01.025Z,95.89
2017-09-25T07:30:54.433Z,95.60
2017-09-25T07:31:54.481Z,95.22
2017-09-25T07:33:48.877Z,95.41
2017-09-25T07:34:48.886Z,94.84
2017-09-25T07:36:42.251Z,94.27
2017-09-25T07:37:42.263Z,94.84
2017-09-25T07:39:35.721Z,94.93
2017-09-25T07:40:35.624Z,95.03
2017-09-25T07:42:29.049Z,95.17
2017-09-25T07:43:29.089Z,95.17
2017-09-25T07:45:22.469Z,94.89
2017-09-25T07:46:22.464Z,93.46
2017-09-25T07:48:15.854Z,94.98
2017-09-25T07:49:15.852Z,95.17
2017-09-25T07:51:09.291Z,94.41
2017-09-25T07:52:09.282Z,94.32
2017-09-25T07:54:02.705Z,93.93
2017-09-25T07:55:02.654Z,93.84
2017-09-25T07:56:56.271Z,92.60
2017-09-25T07:57:56.101Z,93.03
2017-09-25T07:59:49.512Z,92.74
2017-09-25T08:00:49.552Z,92.46
2017-09-25T08:02:42.932Z,93.12
2017-09-25T08:03:42.984Z,93.41
2017-09-25T08:05:36.399Z,92.93
2017-09-25T08:06:36.457Z,93.70
2017-09-25T08:08:29.801Z,92.79
2017-09-25T08:09:29.736Z,93.36
2017-09-25T08:11:23.126Z,92.12
2017-09-25T08:12:23.135Z,93.36
2017-09-25T08:14:16.592Z,93.46
2017-09-25T08:15:16.546Z,93.36
2017-09-25T08:17:09.898Z,93.55
2017-09-25T08:18:09.904Z,93.93
2017-09-25T08:20:03.389Z,93.88
2017-09-25T08:21:03.348Z,93.22
2017-09-25T08:22:56.696Z,92.74
2017-09-25T08:23:56.701Z,92.74
2017-09-25T08:25:50.162Z,92.74
2017-09-25T08:26:50.150Z,93.88
2017-09-25T08:28:43.682Z,92.17
2017-09-25T08:29:43.559Z,93.60
2017-09-25T08:31:36.970Z,94.93
2017-09-25T08:32:36.912Z,94.51
2017-09-25T08:34:31.358Z,93.41
2017-09-25T08:35:31.396Z,92.83
2017-09-25T08:37:24.830Z,91.50
2017-09-25T08:38:24.750Z,91.69
2017-09-25T08:40:19.226Z,93.36
2017-09-25T08:41:19.156Z,92.41
2017-09-25T08:43:13.634Z,92.21
2017-09-25T08:44:13.559Z,92.50
2017-09-25T08:46:06.973Z,94.22
2017-09-25T08:47:07.010Z,92.88
2017-09-25T08:49:00.466Z,92.21
2017-09-25T08:50:00.380Z,92.21
2017-09-25T08:51:53.843Z,90.78
2017-09-25T08:52:53.808Z,90.97
2017-09-25T08:54:47.492Z,90.92
2017-09-25T08:55:55.961Z,90.69
2017-09-25T08:57:51.362Z,90.59
2017-09-25T08:58:52.694Z,91.11
2017-09-25T09:00:37.355Z,89.59
2017-09-25T09:01:45.738Z,90.06
2017-09-25T09:03:40.232Z,90.35
2017-09-25T09:04:40.163Z,90.06
2017-09-25T09:06:26.125Z,89.20
2017-09-25T09:07:25.951Z,90.06
2017-09-25T09:09:29.052Z,89.97
2017-09-25T09:10:29.108Z,90.25
2017-09-25T09:12:14.679Z,89.97
2017-09-25T09:13:14.684Z,91.30
2017-09-25T09:15:08.049Z,91.50
2017-09-25T09:16:08.114Z,91.30
2017-09-25T09:18:01.481Z,89.97
2017-09-25T09:19:01.494Z,89.68
2017-09-25T09:20:54.880Z,90.73
2017-09-25T09:21:54.905Z,89.73
2017-09-25T09:23:48.426Z,90.20
2017-09-25T09:24:48.302Z,90.49
2017-09-25T09:26:42.771Z,89.25
2017-09-25T09:27:42.770Z,88.58
2017-09-25T09:29:36.155Z,89.25
2017-09-25T09:30:36.156Z,90.20
2017-09-25T09:32:29.530Z,90.11
2017-09-25T09:33:29.546Z,88.87
2017-09-25T09:35:23.080Z,89.73
2017-09-25T09:36:23.048Z,88.58
2017-09-25T09:38:16.406Z,90.11
2017-09-25T09:39:16.353Z,91.16
2017-09-25T09:41:09.800Z,90.25
2017-09-25T09:42:09.803Z,90.82
2017-09-25T09:44:03.168Z,89.29
2017-09-25T09:45:03.237Z,89.39
2017-09-25T09:46:56.700Z,89.39
2017-09-25T09:47:56.631Z,90.34
2017-09-25T09:49:50.037Z,90.53
2017-09-25T09:50:50.061Z,88.81
2017-09-25T09:52:43.430Z,86.76
2017-09-25T09:53:43.488Z,87.33
2017-09-25T09:55:37.828Z,87.33
2017-09-25T09:56:37.817Z,86.66
2017-09-25T09:58:31.370Z,86.66
2017-09-25T09:59:31.200Z,87.43
2017-09-25T10:01:33.269Z,85.17
2017-09-25T10:02:32.305Z,84.59
2017-09-25T10:04:19.245Z,84.79
2017-09-25T10:05:26.845Z,84.92
2017-09-25T10:07:22.276Z,82.76
2017-09-25T10:08:13.572Z,82.27
2017-09-25T10:10:09.030Z,75.32
2017-09-25T10:11:09.031Z,74.15
2017-09-25T10:13:02.325Z,66.91
2017-09-25T10:14:02.404Z,64.28
2017-09-25T10:15:55.976Z,60.10
2017-09-25T10:16:55.814Z,59.13
2017-09-25T10:18:49.140Z,59.96
2017-09-25T10:19:49.273Z,56.71
2017-09-25T10:21:50.409Z,56.73
2017-09-25T10:22:42.575Z,54.35
2017-09-25T10:24:35.979Z,55.53
2017-09-25T10:25:36.030Z,52.66
2017-09-25T10:27:29.482Z,51.86
2017-09-25T10:28:29.443Z,50.98
2017-09-25T10:30:22.823Z,51.95
2017-09-25T10:31:22.967Z,52.34
2017-09-25T10:33:16.302Z,52.29
2017-09-25T10:34:16.265Z,53.17
2017-09-25T10:36:09.703Z,52.00
2017-09-25T10:37:09.718Z,49.87
2017-09-25T10:39:03.300Z,48.64
2017-09-25T10:40:03.100Z,49.00
2017-09-25T10:41:56.557Z,48.61
2017-09-25T10:42:56.529Z,51.04
2017-09-25T10:44:50.097Z,49.90
2017-09-25T10:45:49.958Z,49.32
2017-09-25T10:47:44.421Z,45.29
2017-09-25T10:48:44.389Z,47.72
2017-09-25T10:50:37.878Z,47.33
2017-09-25T10:51:37.909Z,45.70
2017-09-25T10:53:32.760Z,45.48
2017-09-25T10:54:32.317Z,44.13
2017-09-25T10:56:25.831Z,45.41
2017-09-25T10:57:25.777Z,48.52
2017-09-25T10:59:19.266Z,45.89
2017-09-25T11:00:19.254Z,43.74
2017-09-25T11:02:12.649Z,47.52
2017-09-25T11:03:12.695Z,44.88
2017-09-25T11:05:06.122Z,46.67
2017-09-25T11:06:06.127Z,46.66
2017-09-25T11:07:59.662Z,48.74
2017-09-25T11:08:59.563Z,51.32
2017-09-25T11:10:53.925Z,53.13
2017-09-25T11:11:53.995Z,53.42
2017-09-25T11:13:47.310Z,51.87
2017-09-25T11:14:47.314Z,50.59
2017-09-25T11:16:40.832Z,53.52
2017-09-25T11:17:40.812Z,53.78
2017-09-25T11:19:34.257Z,54.17
2017-09-25T11:20:34.235Z,56.48
2017-09-25T11:22:27.773Z,58.00
2017-09-25T11:23:27.973Z,58.68
2017-09-25T11:25:22.157Z,55.98
2017-09-25T11:26:22.118Z,56.72
2017-09-25T11:28:15.693Z,56.79
2017-09-25T11:29:15.524Z,59.20
2017-09-25T11:31:10.046Z,59.94
2017-09-25T11:32:09.954Z,57.43
2017-09-25T11:34:03.453Z,63.02
2017-09-25T11:35:03.503Z,61.29
2017-09-25T11:36:56.921Z,56.09
2017-09-25T11:37:56.869Z,61.77
2017-09-25T11:39:50.402Z,59.45
2017-09-25T11:40:50.241Z,59.45
2017-09-25T11:42:44.847Z,58.40
2017-09-25T11:43:44.700Z,60.32
2017-09-25T11:45:39.134Z,62.48
2017-09-25T11:46:39.109Z,63.41
2017-09-25T11:48:32.665Z,62.71
2017-09-25T11:49:32.597Z,66.07
2017-09-25T11:51:26.124Z,65.33
2017-09-25T11:52:26.097Z,63.02
2017-09-25T11:54:19.544Z,60.04
2017-09-25T11:55:19.421Z,61.58
2017-09-25T11:57:13.079Z,63.15
2017-09-25T11:58:20.694Z,59.88
2017-09-25T12:00:06.320Z,62.09
2017-09-25T12:01:06.209Z,60.75
2017-09-25T12:02:59.705Z,64.59
2017-09-25T12:03:59.793Z,61.52
2017-09-25T12:05:53.204Z,58.72
2017-09-25T12:06:53.268Z,59.91
2017-09-25T12:08:46.587Z,56.54
2017-09-25T12:09:46.523Z,57.43
2017-09-25T12:11:39.952Z,53.09
2017-09-25T12:12:39.952Z,52.86
2017-09-25T12:14:33.459Z,54.24
2017-09-25T12:15:33.521Z,54.18
2017-09-25T12:17:26.846Z,52.17
2017-09-25T12:18:26.846Z,52.39
2017-09-25T12:20:20.315Z,51.10
2017-09-25T12:21:20.256Z,52.04
2017-09-25T12:23:13.706Z,53.78
2017-09-25T12:24:13.679Z,53.20
2017-09-25T12:26:08.023Z,52.95
2017-09-25T12:27:08.085Z,52.86
2017-09-25T12:29:01.628Z,56.21
2017-09-25T12:30:01.568Z,54.18
2017-09-25T12:31:54.954Z,56.62
2017-09-25T12:32:55.001Z,56.43
2017-09-25T12:34:48.400Z,54.69
2017-09-25T12:35:48.351Z,55.54
2017-09-25T12:37:41.858Z,54.43
2017-09-25T12:38:41.827Z,51.73
2017-09-25T12:40:35.260Z,52.86
2017-09-25T12:41:35.268Z,54.14
2017-09-25T12:43:28.713Z,52.71
2017-09-25T12:44:28.673Z,56.66
2017-09-25T12:46:22.289Z,60.27
2017-09-25T12:47:22.107Z,61.32
2017-09-25T12:49:15.607Z,62.32
2017-09-25T12:50:15.534Z,61.55
2017-09-25T12:52:09.002Z,64.34
2017-09-25T12:53:08.941Z,67.29
2017-09-25T12:55:02.321Z,69.40
2017-09-25T12:56:02.376Z,67.29
2017-09-25T12:57:56.912Z,66.14
2017-09-25T12:58:56.814Z,68.54
2017-09-25T13:00:50.229Z,69.18
2017-09-25T13:01:50.498Z,67.16
2017-09-25T13:03:43.676Z,67.83
2017-09-25T13:04:43.662Z,66.77
2017-09-25T13:06:37.092Z,68.31
2017-09-25T13:07:37.147Z,67.25
2017-09-25T13:09:30.609Z,69.08
2017-09-25T13:10:30.506Z,69.46
2017-09-25T13:12:23.917Z,66.42
2017-09-25T13:13:23.995Z,64.31
2017-09-25T13:15:17.557Z,68.54
2017-09-25T13:16:17.488Z,64.50
2017-09-25T13:18:10.837Z,64.82
2017-09-25T13:19:10.851Z,63.02
2017-09-25T13:21:05.120Z,63.22
2017-09-25T13:22:05.215Z,60.62
2017-09-25T13:23:59.571Z,58.70
2017-09-25T13:24:59.585Z,59.59
2017-09-25T13:26:53.078Z,60.04
2017-09-25T13:27:53.462Z,60.62
2017-09-25T13:29:46.602Z,61.04
2017-09-25T13:30:46.452Z,60.17
2017-09-25T13:32:41.326Z,57.67
2017-09-25T13:33:41.197Z,58.05
2017-09-25T13:35:34.336Z,56.03
2017-09-25T13:36:34.593Z,56.48
2017-09-25T13:38:27.804Z,60.36
2017-09-25T13:39:27.835Z,60.91
2017-09-25T13:41:21.226Z,57.45
2017-09-25T13:42:21.214Z,57.73
2017-09-25T13:44:14.700Z,61.19
2017-09-25T13:45:14.670Z,59.17
2017-09-25T13:47:08.067Z,57.70
2017-09-25T13:48:08.043Z,58.37
2017-09-25T13:50:01.934Z,61.26
2017-09-25T13:51:02.353Z,57.42
2017-09-25T13:52:55.196Z,56.33
2017-09-25T13:53:55.344Z,56.91
2017-09-25T13:55:49.647Z,56.71
2017-09-25T13:56:49.669Z,56.71
2017-09-25T14:03:21.522Z,57.25
2017-09-25T14:04:21.532Z,56.67
2017-09-25T14:06:14.913Z,60.91
2017-09-25T14:07:14.932Z,58.40
2017-09-25T14:09:08.376Z,57.83
2017-09-25T14:10:08.333Z,55.55
2017-09-25T14:12:02.805Z,56.57
2017-09-25T14:13:02.874Z,56.37
2017-09-25T14:14:56.306Z,52.55
2017-09-25T14:15:56.233Z,53.89
2017-09-25T14:17:49.728Z,50.23
2017-09-25T14:18:49.681Z,49.53
2017-09-25T14:20:43.086Z,53.61
2017-09-25T14:21:43.105Z,53.29
2017-09-25T14:23:36.570Z,49.63
2017-09-25T14:24:36.577Z,54.18
2017-09-25T14:26:29.926Z,54.18
2017-09-25T14:27:29.995Z,49.84
2017-09-25T14:29:23.375Z,47.94
2017-09-25T14:30:23.369Z,50.47
2017-09-25T14:32:18.908Z,48.21
2017-09-25T14:33:18.897Z,45.50
2017-09-25T14:35:12.627Z,45.42
2017-09-25T14:36:12.239Z,45.23
2017-09-25T14:38:06.664Z,44.46
2017-09-25T14:39:06.646Z,45.01
2017-09-25T14:41:00.103Z,47.26
2017-09-25T14:42:00.090Z,45.81
2017-09-25T14:43:53.645Z,47.07
2017-09-25T14:44:53.514Z,46.58
2017-09-25T14:46:47.036Z,48.37
2017-09-25T14:47:46.903Z,50.28
2017-09-25T14:49:40.425Z,50.42
2017-09-25T14:50:40.389Z,53.48
2017-09-25T14:52:33.942Z,53.17
2017-09-25T14:53:33.847Z,51.70
2017-09-25T14:55:27.183Z,55.45
2017-09-25T14:56:27.265Z,56.00
2017-09-25T14:58:20.829Z,58.02
2017-09-25T14:59:20.809Z,58.37
2017-09-25T15:01:15.953Z,59.92
2017-09-25T15:02:15.932Z,60.97
2017-09-25T15:04:09.414Z,60.66
2017-09-25T15:05:09.365Z,61.52
2017-09-25T15:07:03.835Z,60.27
2017-09-25T15:08:04.033Z,63.15
2017-09-25T15:09:57.365Z,62.84
2017-09-25T15:10:57.193Z,64.69
2017-09-25T15:12:51.486Z,66.58
2017-09-25T15:13:51.473Z,62.93
2017-09-25T15:15:44.892Z,63.32
2017-09-25T15:16:44.938Z,67.07
2017-09-25T15:18:38.496Z,64.76
2017-09-25T15:19:38.480Z,67.80
2017-09-25T15:21:31.984Z,68.47
2017-09-25T15:22:32.117Z,69.34
2017-09-25T15:24:25.292Z,70.01
2017-09-25T15:25:25.263Z,71.45
2017-09-25T15:27:18.899Z,66.26
2017-09-25T15:28:18.697Z,67.47
2017-09-25T15:30:12.124Z,68.15
2017-09-25T15:31:15.114Z,67.70
2017-09-25T15:33:05.718Z,68.63
2017-09-25T15:34:05.629Z,67.19
2017-09-25T15:36:00.095Z,68.34
2017-09-25T15:37:00.062Z,66.13
2017-09-25T15:38:54.475Z,66.71
2017-09-25T15:39:54.468Z,66.61
2017-09-25T15:41:47.937Z,62.87
2017-09-25T15:42:47.923Z,63.73
2017-09-25T15:45:41.332Z,61.91
2017-09-25T15:47:35.523Z,62.87
2017-09-25T15:48:34.965Z,62.16
2017-09-25T15:50:28.136Z,63.64
2017-09-25T15:51:28.164Z,66.23
2017-09-25T15:53:21.579Z,64.09
2017-09-25T15:54:21.577Z,62.84
2017-09-25T15:56:15.001Z,67.35
2017-09-25T15:57:14.983Z,67.54
2017-09-25T15:59:09.319Z,67.02
2017-09-25T16:00:09.388Z,67.92
2017-09-25T16:02:02.809Z,69.42
2017-09-25T16:03:02.791Z,69.04
2017-09-25T16:04:56.190Z,72.01
2017-09-25T16:06:04.147Z,71.72
2017-09-25T16:07:50.769Z,70.19
2017-09-25T16:08:50.661Z,69.33
2017-09-25T16:10:44.319Z,69.04
2017-09-25T16:11:44.159Z,70.19
2017-09-25T16:13:37.597Z,69.52
2017-09-25T16:14:37.639Z,68.95
2017-09-25T16:16:30.998Z,69.90
2017-09-25T16:17:31.039Z,71.82
2017-09-25T16:19:24.482Z,72.01
2017-09-25T16:20:24.473Z,71.25
2017-09-25T16:22:17.901Z,71.53
2017-09-25T16:23:17.877Z,73.03
2017-09-25T16:25:11.248Z,74.85
2017-09-25T16:26:11.268Z,75.04
2017-09-25T16:28:04.665Z,74.66
2017-09-25T16:29:04.663Z,76.00
2017-09-25T16:30:58.068Z,76.10
2017-09-25T16:31:58.085Z,76.67
2017-09-25T16:33:53.341Z,76.15
2017-09-25T16:34:53.518Z,76.64
2017-09-25T16:36:47.894Z,77.11
2017-09-25T16:37:47.841Z,77.59
2017-09-25T16:39:41.288Z,77.59
2017-09-25T16:40:41.234Z,78.84
2017-09-25T16:42:34.639Z,78.61
2017-09-25T16:43:34.659Z,78.99
2017-09-25T16:45:29.094Z,79.08
2017-09-25T16:46:29.045Z,79.08
2017-09-25T16:48:22.433Z,79.57
2017-09-25T16:49:22.472Z,79.57
2017-09-25T16:51:15.872Z,81.48
2017-09-25T16:52:15.862Z,81.25
2017-09-25T16:54:09.960Z,81.05
2017-09-25T16:55:09.435Z,81.73
2017-09-25T16:58:03.833Z,82.68
2017-09-25T16:59:58.261Z,82.78
2017-09-25T17:00:58.269Z,82.64
2017-09-25T17:02:52.631Z,82.64
2017-09-25T17:03:52.680Z,82.17
2017-09-25T17:05:46.058Z,83.50
2017-09-25T17:06:46.086Z,83.79
2017-09-25T17:08:39.969Z,83.40
2017-09-25T17:09:40.133Z,83.50
2017-09-25T17:11:35.041Z,84.03
2017-09-25T17:12:34.973Z,84.42
2017-09-25T17:14:28.323Z,84.42
2017-09-25T17:15:28.321Z,84.42
2017-09-25T17:17:21.786Z,84.52
2017-09-25T17:18:21.842Z,84.23
2017-09-25T17:20:18.657Z,84.70
2017-09-25T17:21:18.705Z,85.18
2017-09-25T17:23:12.073Z,83.80
2017-09-25T17:24:12.142Z,85.05
2017-09-25T17:26:12.298Z,85.24
2017-09-25T17:27:08.299Z,85.14
2017-09-25T17:29:01.667Z,84.95
2017-09-25T17:30:01.604Z,84.38
2017-09-25T17:31:55.717Z,85.10
2017-09-25T17:32:55.216Z,84.56
2017-09-25T17:34:48.786Z,85.38
2017-09-25T17:35:48.702Z,84.91
2017-09-25T17:37:49.908Z,86.53
2017-09-25T17:38:42.129Z,86.43
2017-09-25T17:40:36.712Z,85.19
2017-09-25T17:41:36.935Z,86.24
2017-09-25T17:43:31.405Z,86.34
2017-09-25T17:44:31.343Z,86.34
2017-09-25T17:46:27.792Z,86.34
2017-09-25T17:47:35.048Z,86.24
2017-09-25T17:49:20.880Z,86.24
2017-09-25T17:50:21.020Z,85.58
2017-09-25T17:52:16.996Z,86.20
2017-09-25T17:53:17.026Z,86.10
2017-09-25T17:55:11.434Z,85.82
2017-09-25T17:56:11.413Z,85.44
2017-09-25T17:58:04.879Z,85.72
2017-09-25T17:59:05.631Z,85.91
2017-09-25T18:00:58.769Z,86.01
2017-09-25T18:01:58.274Z,86.39
2017-09-25T18:03:51.678Z,85.87
2017-09-25T18:04:51.964Z,86.16
2017-09-25T18:06:55.747Z,86.73
2017-09-25T18:07:46.255Z,86.73
2017-09-25T18:09:40.645Z,86.92
2017-09-25T18:10:40.532Z,86.82
2017-09-25T18:12:43.822Z,86.35
2017-09-25T18:13:35.081Z,87.02
2017-09-25T18:15:28.409Z,87.40
2017-09-25T18:16:37.157Z,87.35
2017-09-25T18:18:30.673Z,86.92
2017-09-25T18:19:23.009Z,87.21
2017-09-25T18:21:25.970Z,87.97
2017-09-25T18:22:25.875Z,87.11
2017-09-25T18:24:10.809Z,87.11
2017-09-25T18:25:10.578Z,87.11
2017-09-25T18:27:03.925Z,88.07
2017-09-25T18:28:03.961Z,87.21
2017-09-25T18:29:57.433Z,87.21
2017-09-25T18:30:57.349Z,86.06
2017-09-25T18:32:50.751Z,86.92
2017-09-25T18:33:50.747Z,87.11
2017-09-25T18:35:44.162Z,86.35
2017-09-25T18:36:44.169Z,86.35
2017-09-25T18:38:37.630Z,86.16
2017-09-25T18:39:37.658Z,86.30
2017-09-25T18:41:30.962Z,86.78
2017-09-25T18:42:31.055Z,87.54
2017-09-25T18:44:24.471Z,87.83
2017-09-25T18:45:24.373Z,87.07
2017-09-25T18:47:17.819Z,87.26